Terminal Aerodrome Forecast
Issued by NWS

Home | Current Version | Previous Version | Graphics & Text | Print | Product List | Glossary On
Versions: 1 2 3 4 5 6 7 8 9 10 11 12 13 14 15 16 17 18 19
000
FTUS41 KCLE 240500
TAFFDY
TAF
KFDY 240528Z 2406/2506 20007KT P6SM BKN150
     FM241400 22014G22KT P6SM SCT040 OVC120
     FM242300 24015G25KT 3SM -SN OVC020=

USA.gov is the U.S. government's official web portal to all federal, state and local government web resources and services.